createdAt,value
2018-01-13T00:03:25.922Z,65.66
2018-01-13T00:05:54.301Z,65.30
2018-01-13T00:08:23.125Z,65.45
2018-01-13T00:10:51.479Z,66.48
2018-01-13T00:13:19.846Z,66.63
2018-01-13T00:15:48.674Z,67.39
2018-01-13T00:18:17.047Z,67.35
2018-01-13T00:20:45.415Z,68.37
2018-01-13T00:23:13.780Z,66.71
2018-01-13T00:25:42.197Z,66.88
2018-01-13T00:28:10.570Z,67.11
2018-01-13T00:30:38.931Z,67.37
2018-01-13T00:33:07.326Z,66.76
2018-01-13T00:35:35.703Z,66.44
2018-01-13T00:38:04.060Z,64.82
2018-01-13T00:40:32.475Z,65.03
2018-01-13T00:43:00.954Z,66.75
2018-01-13T00:45:29.526Z,65.33
2018-01-13T00:47:57.908Z,65.34
2018-01-13T00:50:26.272Z,65.74
2018-01-13T00:52:54.640Z,66.50
2018-01-13T00:55:23.016Z,66.51
2018-01-13T00:57:51.424Z,66.72
2018-01-13T01:00:19.795Z,66.99
2018-01-13T01:02:48.175Z,66.12
2018-01-13T01:05:16.539Z,65.02
2018-01-13T01:07:44.949Z,64.08
2018-01-13T01:10:13.500Z,64.83
2018-01-13T01:12:41.846Z,64.44
2018-01-13T01:15:10.647Z,65.01
2018-01-13T01:17:39.387Z,65.57
2018-01-13T01:20:07.857Z,66.16
2018-01-13T01:22:36.216Z,65.41
2018-01-13T01:25:04.565Z,65.82
2018-01-13T01:27:33.386Z,65.04
2018-01-13T01:30:01.739Z,65.14
2018-01-13T01:32:30.090Z,65.61
2018-01-13T01:34:58.532Z,64.96
2018-01-13T01:37:26.919Z,63.28
2018-01-13T01:39:55.395Z,62.58
2018-01-13T01:42:23.791Z,63.69
2018-01-13T01:44:52.156Z,64.03
2018-01-13T01:47:20.552Z,65.41
2018-01-13T01:49:48.919Z,65.07
2018-01-13T01:52:17.297Z,64.55
2018-01-13T01:54:45.644Z,64.23
2018-01-13T01:57:14.054Z,63.71
2018-01-13T01:59:42.411Z,64.40
2018-01-13T02:02:10.814Z,65.48
2018-01-13T02:04:39.713Z,65.48
2018-01-13T02:07:08.175Z,64.77
2018-01-13T02:09:36.529Z,63.66
2018-01-13T02:12:04.931Z,63.84
2018-01-13T02:14:33.280Z,64.69
2018-01-13T02:17:01.646Z,64.22
2018-01-13T02:19:30.423Z,64.83
2018-01-13T02:21:59.185Z,63.13
2018-01-13T02:24:27.551Z,62.96
2018-01-13T02:26:55.912Z,64.33
2018-01-13T02:29:24.262Z,63.75
2018-01-13T02:31:52.630Z,64.45
2018-01-13T02:34:21.490Z,66.37
2018-01-13T02:36:49.898Z,64.54
2018-01-13T02:39:18.647Z,64.61
2018-01-13T02:41:47.012Z,65.00
2018-01-13T02:44:15.407Z,65.33
2018-01-13T02:46:43.771Z,65.01
2018-01-13T02:49:12.115Z,65.77
2018-01-13T02:51:40.497Z,65.22
2018-01-13T02:54:08.849Z,64.23
2018-01-13T02:56:37.292Z,66.22
2018-01-13T02:59:05.645Z,65.71
2018-01-13T03:01:34.016Z,65.09
2018-01-13T03:04:02.380Z,64.45
2018-01-13T03:06:31.151Z,65.26
2018-01-13T03:08:59.543Z,65.81
2018-01-13T03:11:28.395Z,65.66
2018-01-13T03:13:56.790Z,64.95
2018-01-13T03:16:25.155Z,63.67
2018-01-13T03:18:53.569Z,64.37
2018-01-13T03:21:22.415Z,65.21
2018-01-13T03:23:50.784Z,65.71
2018-01-13T03:26:19.731Z,65.01
2018-01-13T03:28:48.566Z,65.05
2018-01-13T03:31:16.981Z,65.56
2018-01-13T03:33:45.751Z,66.11
2018-01-13T03:36:14.127Z,65.55
2018-01-13T03:38:42.542Z,65.02
2018-01-13T03:41:11.119Z,64.09
2018-01-13T03:43:40.050Z,64.27
2018-01-13T03:46:08.415Z,65.35
2018-01-13T03:48:36.767Z,66.15
2018-01-13T03:51:05.133Z,64.04
2018-01-13T03:53:33.479Z,63.73
2018-01-13T03:56:01.974Z,63.60
2018-01-13T03:58:30.369Z,65.25
2018-01-13T04:00:58.853Z,63.91
2018-01-13T04:03:27.229Z,63.07
2018-01-13T04:05:55.630Z,63.15
2018-01-13T04:08:24.397Z,63.74
2018-01-13T04:10:52.776Z,63.70
2018-01-13T04:13:21.143Z,63.85
2018-01-13T04:15:49.526Z,63.84
2018-01-13T04:18:17.905Z,63.41
2018-01-13T04:20:46.279Z,65.28
2018-01-13T04:23:14.631Z,63.90
2018-01-13T04:25:42.998Z,63.71
2018-01-13T04:28:11.379Z,64.54
2018-01-13T04:30:39.746Z,63.37
2018-01-13T04:33:08.102Z,63.47
2018-01-13T04:35:37.052Z,63.30
2018-01-13T04:38:05.431Z,62.98
2018-01-13T04:40:33.787Z,62.30
2018-01-13T04:43:02.131Z,63.95
2018-01-13T04:45:30.952Z,64.65
2018-01-13T04:47:59.311Z,63.49
2018-01-13T04:50:27.683Z,63.93
2018-01-13T04:52:56.058Z,63.63
2018-01-13T04:55:24.434Z,63.90
2018-01-13T04:57:52.802Z,64.06
2018-01-13T05:00:21.196Z,63.04
2018-01-13T05:02:50.047Z,64.16
2018-01-13T05:05:18.436Z,64.23
2018-01-13T05:07:46.803Z,64.87
2018-01-13T05:10:15.191Z,64.29
2018-01-13T05:12:43.555Z,63.91
2018-01-13T05:15:11.939Z,63.75
2018-01-13T05:17:40.324Z,63.72
2018-01-13T05:20:08.683Z,65.40
2018-01-13T05:22:37.169Z,64.06
2018-01-13T05:25:05.531Z,62.25
2018-01-13T05:27:33.884Z,63.40
2018-01-13T05:30:02.650Z,64.74
2018-01-13T05:32:31.007Z,65.20
2018-01-13T05:34:59.373Z,64.35
2018-01-13T05:37:27.743Z,64.69
2018-01-13T05:39:57.156Z,63.83
2018-01-13T05:42:25.506Z,64.12
2018-01-13T05:44:53.903Z,63.04
2018-01-13T05:47:22.264Z,62.54
2018-01-13T05:49:50.618Z,62.23
2018-01-13T05:52:19.405Z,63.10
2018-01-13T05:54:48.176Z,62.65
2018-01-13T05:57:16.731Z,61.40
2018-01-13T05:59:45.175Z,60.92
2018-01-13T06:02:13.536Z,61.30
2018-01-13T06:04:42.375Z,62.07
2018-01-13T06:07:10.861Z,60.95
2018-01-13T06:09:39.258Z,61.97
2018-01-13T06:12:07.637Z,61.76
2018-01-13T06:14:36.016Z,61.08
2018-01-13T06:17:04.487Z,62.75
2018-01-13T06:19:32.833Z,64.69
2018-01-13T06:22:01.207Z,64.46
2018-01-13T06:24:29.572Z,64.06
2018-01-13T06:26:57.992Z,64.14
2018-01-13T06:29:26.468Z,62.40
2018-01-13T06:31:54.819Z,61.59
2018-01-13T06:34:23.170Z,61.53
2018-01-13T06:36:52.067Z,60.41
2018-01-13T06:39:20.405Z,61.24
2018-01-13T06:41:48.755Z,60.49
2018-01-13T06:44:17.144Z,61.27
2018-01-13T06:46:45.495Z,61.92
2018-01-13T06:49:13.867Z,63.28
2018-01-13T06:51:42.366Z,61.89
2018-01-13T06:54:10.727Z,62.41
2018-01-13T06:56:39.071Z,60.71
2018-01-13T06:59:07.445Z,61.75
2018-01-13T07:01:35.807Z,61.92
2018-01-13T07:04:04.242Z,61.19
2018-01-13T07:06:32.615Z,61.56
2018-01-13T07:09:02.300Z,60.64
2018-01-13T07:11:30.772Z,60.25
2018-01-13T07:13:59.212Z,60.15
2018-01-13T07:16:27.571Z,60.16
2018-01-13T07:18:57.239Z,61.37
2018-01-13T07:21:26.016Z,60.49
2018-01-13T07:23:54.406Z,60.54
2018-01-13T07:26:22.767Z,59.90
2018-01-13T07:28:51.463Z,59.82
2018-01-13T07:31:19.807Z,59.88
2018-01-13T07:33:48.172Z,60.28
2018-01-13T07:36:16.615Z,60.04
2018-01-13T07:38:45.076Z,60.14
2018-01-13T07:41:13.469Z,60.23
2018-01-13T07:43:41.935Z,60.54
2018-01-13T07:46:10.311Z,60.21
2018-01-13T07:48:38.683Z,60.10
2018-01-13T07:51:07.074Z,60.51
2018-01-13T07:53:35.434Z,60.31
2018-01-13T07:56:04.027Z,59.44
2018-01-13T07:58:32.415Z,61.06
2018-01-13T08:01:00.802Z,59.69
2018-01-13T08:03:35.220Z,58.82
2018-01-13T08:06:03.605Z,59.48
2018-01-13T08:08:31.977Z,60.11
2018-01-13T08:11:00.394Z,59.23
2018-01-13T08:13:29.151Z,59.70
2018-01-13T08:15:57.619Z,59.46
2018-01-13T08:18:25.988Z,59.60
2018-01-13T08:20:54.355Z,59.90
2018-01-13T08:23:22.755Z,59.54
2018-01-13T08:25:51.128Z,60.28
2018-01-13T08:28:19.472Z,60.90
2018-01-13T08:30:47.832Z,60.77
2018-01-13T08:33:16.685Z,60.00
2018-01-13T08:35:45.043Z,59.89
2018-01-13T08:38:13.409Z,60.28
2018-01-13T08:40:41.803Z,59.40
2018-01-13T08:43:10.205Z,59.36
2018-01-13T08:45:38.577Z,59.46
2018-01-13T08:48:06.957Z,59.68
2018-01-13T08:50:35.337Z,58.50
2018-01-13T08:53:03.987Z,59.57
2018-01-13T08:55:32.476Z,59.70
2018-01-13T08:58:00.847Z,59.71
2018-01-13T09:00:29.287Z,59.16
2018-01-13T09:02:57.678Z,60.13
2018-01-13T09:05:26.031Z,59.79
2018-01-13T09:07:54.392Z,59.98
2018-01-13T09:10:22.770Z,60.14
2018-01-13T09:12:51.124Z,59.02
2018-01-13T09:15:19.495Z,57.53
2018-01-13T09:17:47.896Z,58.21
2018-01-13T09:20:16.244Z,59.59
2018-01-13T09:22:44.591Z,59.59
2018-01-13T09:25:13.364Z,59.49
2018-01-13T09:27:41.722Z,60.60
2018-01-13T09:30:10.120Z,60.04
2018-01-13T09:32:38.509Z,58.61
2018-01-13T09:35:06.972Z,57.84
2018-01-13T09:37:35.332Z,57.63
2018-01-13T09:40:03.722Z,56.14
2018-01-13T09:42:32.622Z,54.03
2018-01-13T09:45:01.006Z,52.36
2018-01-13T09:47:29.401Z,51.48
2018-01-13T09:49:57.783Z,52.19
2018-01-13T09:52:26.187Z,52.50
2018-01-13T09:54:54.562Z,51.77
2018-01-13T09:57:22.917Z,53.03
2018-01-13T09:59:51.404Z,52.19
2018-01-13T10:02:20.185Z,51.42
2018-01-13T10:04:48.651Z,52.28
2018-01-13T10:07:17.020Z,51.85
2018-01-13T10:09:45.398Z,51.77
2018-01-13T10:12:13.777Z,52.07
2018-01-13T10:14:42.140Z,52.36
2018-01-13T10:17:10.517Z,51.37
2018-01-13T10:19:38.886Z,51.06
2018-01-13T10:22:07.294Z,51.25
2018-01-13T10:24:35.721Z,52.12
2018-01-13T10:27:04.481Z,50.89
2018-01-13T10:29:32.830Z,51.01
2018-01-13T10:32:01.202Z,52.67
2018-01-13T10:34:29.691Z,53.78
2018-01-13T10:36:58.074Z,54.04
2018-01-13T10:39:28.458Z,53.92
2018-01-13T10:41:56.880Z,53.84
2018-01-13T10:44:25.243Z,54.04
2018-01-13T10:46:53.627Z,52.93
2018-01-13T10:49:22.944Z,55.28
2018-01-13T10:51:51.294Z,55.19
2018-01-13T10:54:19.702Z,55.37
2018-01-13T10:56:48.070Z,53.77
2018-01-13T10:59:16.428Z,52.90
2018-01-13T11:01:44.834Z,53.05
2018-01-13T11:04:13.204Z,52.22
2018-01-13T11:06:41.743Z,51.36
2018-01-13T11:09:10.087Z,51.42
2018-01-13T11:11:38.443Z,52.67
2018-01-13T11:14:06.796Z,52.56
2018-01-13T11:16:35.184Z,53.87
2018-01-13T11:19:03.689Z,53.32
2018-01-13T11:21:32.066Z,52.53
2018-01-13T11:24:00.449Z,52.69
2018-01-13T11:26:28.820Z,51.40
2018-01-13T11:28:57.200Z,50.64
2018-01-13T11:31:25.600Z,51.01
2018-01-13T11:33:54.060Z,51.53
2018-01-13T11:36:22.451Z,52.69
2018-01-13T11:38:50.860Z,53.45
2018-01-13T11:41:19.612Z,53.48
2018-01-13T11:43:47.980Z,51.96
2018-01-13T11:46:16.480Z,53.18
2018-01-13T11:48:44.848Z,52.26
2018-01-13T11:51:13.218Z,52.55
2018-01-13T11:53:41.600Z,53.17
2018-01-13T11:56:10.057Z,53.53
2018-01-13T11:58:38.411Z,53.89
2018-01-13T12:01:07.189Z,53.31
2018-01-13T12:03:35.949Z,53.30
2018-01-13T12:06:04.312Z,52.71
2018-01-13T12:08:32.696Z,51.95
2018-01-13T12:11:01.061Z,51.68
2018-01-13T12:13:29.427Z,52.38
2018-01-13T12:15:57.812Z,53.25
2018-01-13T12:18:26.173Z,52.52
2018-01-13T12:20:54.605Z,52.48
2018-01-13T12:23:23.064Z,52.13
2018-01-13T12:25:51.445Z,52.36
2018-01-13T12:28:19.804Z,52.21
2018-01-13T12:30:48.240Z,51.96
2018-01-13T12:33:16.979Z,51.59
2018-01-13T12:35:45.380Z,51.20
2018-01-13T12:38:13.846Z,51.16
2018-01-13T12:40:42.240Z,50.96
2018-01-13T12:43:10.658Z,50.59
2018-01-13T12:45:39.475Z,51.31
2018-01-13T12:48:07.872Z,50.97
2018-01-13T12:50:36.232Z,51.39
2018-01-13T12:53:04.744Z,51.88
2018-01-13T12:55:33.119Z,50.87
2018-01-13T12:58:01.507Z,51.79
2018-01-13T13:00:30.083Z,50.19
2018-01-13T13:02:58.506Z,50.06
2018-01-13T13:05:27.300Z,49.92
2018-01-13T13:07:55.732Z,48.92
2018-01-13T13:10:24.173Z,50.12
2018-01-13T13:12:52.529Z,49.49
2018-01-13T13:15:20.925Z,50.76
2018-01-13T13:17:49.285Z,50.98
2018-01-13T13:20:18.036Z,50.28
2018-01-13T13:22:46.628Z,50.48
2018-01-13T13:25:15.113Z,50.20
2018-01-13T13:27:43.571Z,49.42
2018-01-13T13:30:11.952Z,49.15
2018-01-13T13:32:40.322Z,48.39
2018-01-13T13:35:08.689Z,48.43
2018-01-13T13:37:37.071Z,48.51
2018-01-13T13:40:05.420Z,47.45
2018-01-13T13:42:34.171Z,47.56
2018-01-13T13:45:02.575Z,47.02
2018-01-13T13:47:30.932Z,47.39
2018-01-13T13:49:59.299Z,46.99
2018-01-13T13:52:27.675Z,48.90
2018-01-13T13:54:56.034Z,48.96
2018-01-13T13:57:24.404Z,48.40
2018-01-13T13:59:52.815Z,48.83
2018-01-13T14:02:21.254Z,47.49
2018-01-13T14:04:49.602Z,48.47
2018-01-13T14:07:18.477Z,48.78
2018-01-13T14:09:46.930Z,48.83
2018-01-13T14:12:15.293Z,48.79
2018-01-13T14:14:43.804Z,48.73
2018-01-13T14:17:12.188Z,47.88
2018-01-13T14:19:40.560Z,47.76
2018-01-13T14:22:09.050Z,47.81
2018-01-13T14:24:37.411Z,47.88
2018-01-13T14:27:05.763Z,47.72
2018-01-13T14:29:34.177Z,47.94
2018-01-13T14:32:02.568Z,49.97
2018-01-13T14:34:30.938Z,49.72
2018-01-13T14:36:59.404Z,48.86
2018-01-13T14:39:27.794Z,49.19
2018-01-13T14:41:56.135Z,49.63
2018-01-13T14:44:25.631Z,48.91
2018-01-13T14:46:53.991Z,48.45
2018-01-13T14:49:22.887Z,48.94
2018-01-13T14:51:51.334Z,48.75
2018-01-13T14:54:19.715Z,48.80
2018-01-13T14:56:48.085Z,47.92
2018-01-13T14:59:16.488Z,48.33
2018-01-13T15:01:44.948Z,48.14
2018-01-13T15:04:13.325Z,48.01
2018-01-13T15:06:41.711Z,47.23
2018-01-13T15:09:10.095Z,48.99
2018-01-13T15:11:38.532Z,48.47
2018-01-13T15:14:06.895Z,48.59
2018-01-13T15:16:35.520Z,47.36
2018-01-13T15:19:04.017Z,47.70
2018-01-13T15:21:32.392Z,48.00
2018-01-13T15:24:00.773Z,48.74
2018-01-13T15:26:29.152Z,49.58
2018-01-13T15:28:57.541Z,49.47
2018-01-13T15:31:26.053Z,48.84
2018-01-13T15:33:54.895Z,48.84
2018-01-13T15:36:23.371Z,49.08
2018-01-13T15:38:51.731Z,47.97
2018-01-13T15:41:20.092Z,47.67
2018-01-13T15:43:48.561Z,49.29
2018-01-13T15:46:17.024Z,49.35
2018-01-13T15:48:45.427Z,49.51
2018-01-13T15:51:13.799Z,50.17
2018-01-13T15:53:42.555Z,48.94
2018-01-13T15:56:11.940Z,48.35
2018-01-13T15:58:40.427Z,47.69
2018-01-13T16:01:08.796Z,49.56
2018-01-13T16:03:37.179Z,50.34
2018-01-13T16:06:05.548Z,50.53
2018-01-13T16:08:33.909Z,49.95
2018-01-13T16:11:02.320Z,49.32
2018-01-13T16:13:30.810Z,49.43
2018-01-13T16:15:59.212Z,50.90
2018-01-13T16:18:27.992Z,52.27
2018-01-13T16:20:56.378Z,51.02
2018-01-13T16:23:25.175Z,49.53
2018-01-13T16:25:53.525Z,49.83
2018-01-13T16:28:21.991Z,50.45
2018-01-13T16:30:50.354Z,50.34
2018-01-13T16:33:18.744Z,49.43
2018-01-13T16:35:47.128Z,49.29
2018-01-13T16:38:15.536Z,49.88
2018-01-13T16:40:44.097Z,50.25
2018-01-13T16:43:12.568Z,50.34
2018-01-13T16:45:40.953Z,50.16
2018-01-13T16:48:09.338Z,50.36
2018-01-13T16:50:37.804Z,51.42
2018-01-13T16:53:06.166Z,51.11
2018-01-13T16:55:34.592Z,51.02
2018-01-13T16:58:02.965Z,51.75
2018-01-13T17:00:31.499Z,50.96
2018-01-13T17:03:00.855Z,52.55
2018-01-13T17:05:29.240Z,51.93
2018-01-13T17:07:58.096Z,51.68
2018-01-13T17:10:26.472Z,51.58
2018-01-13T17:12:54.853Z,52.01
2018-01-13T17:15:23.208Z,52.85
2018-01-13T17:17:51.565Z,51.35
2018-01-13T17:20:19.926Z,53.16
2018-01-13T17:22:48.803Z,52.88
2018-01-13T17:25:17.255Z,53.51
2018-01-13T17:27:45.630Z,53.23
2018-01-13T17:30:13.982Z,53.41
2018-01-13T17:32:42.340Z,54.33
2018-01-13T17:35:11.154Z,54.73
2018-01-13T17:37:39.875Z,54.34
2018-01-13T17:40:08.246Z,53.33
2018-01-13T17:42:36.632Z,52.89
2018-01-13T17:45:04.988Z,52.61
2018-01-13T17:47:33.349Z,52.55
2018-01-13T17:50:01.735Z,51.19
2018-01-13T17:52:30.126Z,50.15
2018-01-13T17:54:58.501Z,50.46
2018-01-13T17:57:26.895Z,51.26
2018-01-13T17:59:55.256Z,51.71
2018-01-13T18:02:23.604Z,51.03
2018-01-13T18:04:52.417Z,50.45
2018-01-13T18:07:20.801Z,50.73
2018-01-13T18:09:49.157Z,51.72
2018-01-13T18:12:17.933Z,52.05
2018-01-13T18:14:46.778Z,52.38
2018-01-13T18:17:15.150Z,52.65
2018-01-13T18:19:43.515Z,52.26
2018-01-13T18:22:11.912Z,51.91
2018-01-13T18:24:40.280Z,50.81
2018-01-13T18:27:08.668Z,52.53
2018-01-13T18:29:37.049Z,50.82
2018-01-13T18:32:05.403Z,50.39
2018-01-13T18:34:33.780Z,50.47
2018-01-13T18:37:02.141Z,50.33
2018-01-13T18:39:30.896Z,49.81
2018-01-13T18:41:59.470Z,49.41
2018-01-13T18:44:27.836Z,51.63
2018-01-13T18:46:56.318Z,50.43
2018-01-13T18:49:24.707Z,51.73
2018-01-13T18:51:53.079Z,51.55
2018-01-13T18:54:21.460Z,51.79
2018-01-13T18:56:49.859Z,51.74
2018-01-13T18:59:18.213Z,53.52
2018-01-13T19:01:46.612Z,52.54
2018-01-13T19:04:14.992Z,52.16
2018-01-13T19:06:43.353Z,50.05
2018-01-13T19:09:11.751Z,50.75
2018-01-13T19:11:40.215Z,51.38
2018-01-13T19:14:08.580Z,51.21
2018-01-13T19:16:36.935Z,51.13
2018-01-13T19:19:05.312Z,52.31
2018-01-13T19:21:33.667Z,52.00
2018-01-13T19:24:02.612Z,52.59
2018-01-13T19:26:31.531Z,52.14
2018-01-13T19:28:59.988Z,51.77
2018-01-13T19:31:28.363Z,52.82
2018-01-13T19:33:56.856Z,51.10
2018-01-13T19:36:25.214Z,50.50
2018-01-13T19:38:53.717Z,50.54
2018-01-13T19:41:22.301Z,51.46
2018-01-13T19:43:50.759Z,51.85
2018-01-13T19:46:19.134Z,52.81
2018-01-13T19:48:47.832Z,52.69
2018-01-13T19:51:16.475Z,51.80
2018-01-13T19:53:44.953Z,51.32
2018-01-13T19:56:13.499Z,52.32
2018-01-13T19:58:41.873Z,52.84
2018-01-13T20:01:10.245Z,51.84
2018-01-13T20:03:38.633Z,51.31
2018-01-13T20:06:06.996Z,52.33
2018-01-13T20:08:35.377Z,52.94
2018-01-13T20:11:03.762Z,51.98
2018-01-13T20:13:32.108Z,51.68
2018-01-13T20:16:00.473Z,51.25
2018-01-13T20:18:29.008Z,52.68
2018-01-13T20:20:57.389Z,52.44
2018-01-13T20:23:25.762Z,52.37
2018-01-13T20:25:54.232Z,52.47
2018-01-13T20:28:22.631Z,51.01
2018-01-13T20:30:51.096Z,51.40
2018-01-13T20:33:19.591Z,51.44
2018-01-13T20:35:47.970Z,52.21
2018-01-13T20:38:16.345Z,51.43
2018-01-13T20:40:44.758Z,51.48
2018-01-13T20:43:13.549Z,50.99
2018-01-13T20:45:42.300Z,50.38
2018-01-13T20:48:10.799Z,50.62
2018-01-13T20:50:39.200Z,50.90
2018-01-13T20:53:07.567Z,51.72
2018-01-13T20:55:36.658Z,51.37
2018-01-13T20:58:05.520Z,52.27
2018-01-13T21:00:34.208Z,52.14
2018-01-13T21:03:03.019Z,51.10
2018-01-13T21:05:31.487Z,50.55
2018-01-13T21:07:59.869Z,50.73
2018-01-13T21:10:28.265Z,50.91
2018-01-13T21:12:57.142Z,51.44
2018-01-13T21:15:25.520Z,51.30
2018-01-13T21:17:53.923Z,51.54
2018-01-13T21:20:22.367Z,52.74
2018-01-13T21:22:50.736Z,51.91
2018-01-13T21:25:19.152Z,52.37
2018-01-13T21:27:47.508Z,50.66
2018-01-13T21:30:15.877Z,51.18
2018-01-13T21:32:44.343Z,50.90
2018-01-13T21:35:12.710Z,49.80
2018-01-13T21:37:41.111Z,50.13
2018-01-13T21:40:09.511Z,51.44
2018-01-13T21:42:37.871Z,50.85
2018-01-13T21:45:06.281Z,51.30
2018-01-13T21:47:35.071Z,50.50
2018-01-13T21:50:03.860Z,50.30
2018-01-13T21:52:32.727Z,50.69
2018-01-13T21:55:01.102Z,50.01
2018-01-13T21:57:29.469Z,50.03
2018-01-13T21:59:57.826Z,51.30
2018-01-13T22:02:26.200Z,51.68
2018-01-13T22:04:54.559Z,50.69
2018-01-13T22:07:22.922Z,51.65
2018-01-13T22:09:51.693Z,51.92
2018-01-13T22:12:20.060Z,51.04
2018-01-13T22:14:48.539Z,51.87
2018-01-13T22:17:17.023Z,49.98
2018-01-13T22:19:45.393Z,49.56
2018-01-13T22:22:13.767Z,49.72
2018-01-13T22:24:42.161Z,49.44
2018-01-13T22:27:10.520Z,50.27
2018-01-13T22:29:38.911Z,50.51
2018-01-13T22:32:07.288Z,49.55
2018-01-13T22:34:35.672Z,48.94
2018-01-13T22:37:04.030Z,48.75
2018-01-13T22:39:32.455Z,49.82
2018-01-13T22:42:00.811Z,49.66
2018-01-13T22:44:29.179Z,50.29
2018-01-13T22:46:57.595Z,49.14
2018-01-13T22:49:26.383Z,49.48
2018-01-13T22:51:55.144Z,50.72
2018-01-13T22:54:23.566Z,50.15
2018-01-13T22:56:52.031Z,49.77
2018-01-13T22:59:20.779Z,49.66
2018-01-13T23:01:49.169Z,49.73
2018-01-13T23:04:17.562Z,50.50
2018-01-13T23:06:46.039Z,49.54
2018-01-13T23:09:14.417Z,48.89
2018-01-13T23:11:42.793Z,48.74
2018-01-13T23:14:11.189Z,48.52
2018-01-13T23:16:39.644Z,47.74
2018-01-13T23:19:07.997Z,48.78
2018-01-13T23:21:36.371Z,49.71
2018-01-13T23:24:04.736Z,50.54
2018-01-13T23:26:33.110Z,50.70
2018-01-13T23:29:01.594Z,50.64
2018-01-13T23:31:29.975Z,50.24
2018-01-13T23:33:58.422Z,50.07
2018-01-13T23:36:26.848Z,50.00
2018-01-13T23:38:55.256Z,50.46
2018-01-13T23:41:23.607Z,50.34
2018-01-13T23:43:51.972Z,49.83
2018-01-13T23:46:20.367Z,49.90
2018-01-13T23:48:48.733Z,50.04
2018-01-13T23:51:17.152Z,50.45
2018-01-13T23:53:45.720Z,50.27
2018-01-13T23:56:14.084Z,50.01
2018-01-13T23:58:42.443Z,49.46
